createdAt,value
2023-05-17T00:01:24.457Z,69.14
2023-05-17T00:03:58.168Z,69.35
2023-05-17T00:06:33.024Z,69.43
2023-05-17T00:09:08.094Z,69.68
2023-05-17T00:11:41.947Z,69.54
2023-05-17T00:14:15.595Z,69.67
2023-05-17T00:16:50.007Z,69.76
2023-05-17T00:19:23.859Z,69.68
2023-05-17T00:21:57.834Z,69.64
2023-05-17T00:24:31.251Z,69.63
2023-05-17T00:27:05.108Z,69.40
2023-05-17T00:29:39.266Z,69.45
2023-05-17T00:32:13.196Z,69.37
2023-05-17T00:34:46.797Z,69.33
2023-05-17T00:37:21.899Z,69.14
2023-05-17T00:39:55.606Z,69.08
2023-05-17T00:42:30.787Z,68.98
2023-05-17T00:45:04.362Z,69.06
2023-05-17T00:47:38.095Z,69.19
2023-05-17T00:50:13.694Z,69.30
2023-05-17T00:52:48.046Z,69.49
2023-05-17T00:55:22.242Z,69.72
2023-05-17T00:57:56.381Z,69.76
2023-05-17T01:00:30.201Z,69.76
2023-05-17T01:03:04.393Z,69.74
2023-05-17T01:05:38.793Z,69.88
2023-05-17T01:08:12.245Z,69.94
2023-05-17T01:10:52.704Z,70.14
2023-05-17T01:13:35.264Z,69.98
2023-05-17T01:16:18.320Z,69.87
2023-05-17T01:18:59.366Z,69.93
2023-05-17T01:21:46.934Z,70.04
2023-05-17T01:24:30.733Z,70.16
2023-05-17T01:27:06.975Z,70.35
2023-05-17T01:29:44.764Z,70.54
2023-05-17T01:32:19.497Z,70.63
2023-05-17T01:34:53.280Z,70.80
2023-05-17T01:37:27.528Z,71.00
2023-05-17T01:40:01.496Z,70.84
2023-05-17T01:42:35.667Z,71.02
2023-05-17T01:45:14.971Z,71.16
2023-05-17T01:47:55.327Z,71.26
2023-05-17T01:50:35.095Z,71.30
2023-05-17T01:53:12.695Z,71.30
2023-05-17T01:55:52.147Z,71.16
2023-05-17T01:58:31.463Z,71.30
2023-05-17T02:01:06.455Z,71.41
2023-05-17T02:03:40.003Z,71.32
2023-05-17T02:06:13.944Z,71.48
2023-05-17T02:08:48.436Z,71.70
2023-05-17T02:11:22.088Z,71.73
2023-05-17T02:13:59.631Z,71.85
2023-05-17T02:16:33.856Z,71.82
2023-05-17T02:19:09.665Z,71.81
2023-05-17T02:21:43.616Z,71.79
2023-05-17T02:24:16.894Z,72.13
2023-05-17T02:26:52.177Z,72.17
2023-05-17T02:29:26.101Z,72.38
2023-05-17T02:32:00.217Z,72.46
2023-05-17T02:34:34.650Z,72.39
2023-05-17T02:37:08.746Z,72.73
2023-05-17T02:39:44.266Z,72.88
2023-05-17T02:42:17.831Z,72.95
2023-05-17T02:44:53.437Z,73.04
2023-05-17T02:47:27.499Z,73.20
2023-05-17T02:50:01.589Z,73.23
2023-05-17T02:52:36.433Z,73.46
2023-05-17T02:55:12.402Z,73.49
2023-05-17T02:57:46.598Z,73.45
2023-05-17T03:00:21.940Z,73.62
2023-05-17T03:02:55.671Z,73.70
2023-05-17T03:05:33.113Z,73.73
2023-05-17T03:08:07.018Z,73.73
2023-05-17T03:10:40.625Z,73.80
2023-05-17T03:13:15.174Z,73.89
2023-05-17T03:15:49.202Z,73.86
2023-05-17T03:18:23.172Z,73.98
2023-05-17T03:20:56.962Z,74.07
2023-05-17T03:23:30.958Z,74.01
2023-05-17T03:26:06.815Z,74.06
2023-05-17T03:28:47.739Z,74.00
2023-05-17T03:31:22.402Z,74.03
2023-05-17T03:33:56.869Z,73.97
2023-05-17T03:36:30.470Z,74.00
2023-05-17T03:39:04.748Z,73.96
2023-05-17T03:41:39.018Z,74.12
2023-05-17T03:44:13.157Z,74.07
2023-05-17T03:46:47.629Z,74.37
2023-05-17T03:49:21.636Z,74.24
2023-05-17T03:51:56.075Z,74.33
2023-05-17T03:54:30.083Z,74.30
2023-05-17T03:57:04.223Z,74.37
2023-05-17T03:59:38.176Z,74.41
2023-05-17T04:02:12.396Z,74.56
2023-05-17T04:04:53.463Z,74.80
2023-05-17T04:07:28.183Z,74.82
2023-05-17T04:10:03.386Z,74.73
2023-05-17T04:12:37.277Z,74.78
2023-05-17T04:15:13.283Z,74.72
2023-05-17T04:17:47.513Z,74.77
2023-05-17T04:20:22.374Z,74.79
2023-05-17T04:22:56.697Z,74.80
2023-05-17T04:25:31.382Z,74.94
2023-05-17T04:28:05.762Z,74.76
2023-05-17T04:30:44.211Z,74.88
2023-05-17T04:33:18.387Z,74.66
2023-05-17T04:35:57.055Z,74.70
2023-05-17T04:38:32.316Z,74.65
2023-05-17T04:41:09.756Z,74.91
2023-05-17T04:43:44.707Z,75.06
2023-05-17T04:46:26.069Z,74.97
2023-05-17T04:49:00.721Z,75.04
2023-05-17T04:51:34.222Z,75.07
2023-05-17T04:54:09.350Z,75.09
2023-05-17T04:56:42.976Z,75.23
2023-05-17T04:59:20.974Z,75.26
2023-05-17T05:01:55.024Z,75.28
2023-05-17T05:04:29.459Z,75.18
2023-05-17T05:07:03.540Z,75.18
2023-05-17T05:09:37.188Z,75.00
2023-05-17T05:12:12.841Z,75.19
2023-05-17T05:14:50.529Z,75.12
2023-05-17T05:17:24.721Z,75.11
2023-05-17T05:19:58.559Z,75.09
2023-05-17T05:22:33.041Z,74.85
2023-05-17T05:25:07.548Z,74.97
2023-05-17T05:27:41.558Z,75.29
2023-05-17T05:30:22.775Z,75.33
2023-05-17T05:32:58.747Z,75.38
2023-05-17T05:35:33.192Z,75.43
2023-05-17T05:38:08.499Z,75.22
2023-05-17T05:40:42.948Z,75.45
2023-05-17T05:43:17.074Z,75.27
2023-05-17T05:45:50.443Z,75.03
2023-05-17T05:48:24.304Z,75.05
2023-05-17T05:50:58.597Z,75.20
2023-05-17T05:53:32.297Z,75.16
2023-05-17T05:56:06.774Z,75.00
2023-05-17T05:58:40.580Z,75.03
2023-05-17T06:01:15.553Z,75.04
2023-05-17T06:03:49.640Z,74.83
2023-05-17T06:06:23.537Z,74.76
2023-05-17T06:08:59.426Z,74.48
2023-05-17T06:11:34.333Z,74.41
2023-05-17T06:14:08.241Z,74.29
2023-05-17T06:16:42.239Z,74.46
2023-05-17T06:19:16.131Z,74.53
2023-05-17T06:21:50.223Z,74.74
2023-05-17T06:24:24.043Z,74.38
2023-05-17T06:26:57.715Z,74.33
2023-05-17T06:29:31.505Z,74.42
2023-05-17T06:32:05.393Z,74.58
2023-05-17T06:34:40.425Z,74.65
2023-05-17T06:37:14.206Z,74.51
2023-05-17T06:39:55.973Z,74.59
2023-05-17T06:42:34.124Z,74.70
2023-05-17T06:45:10.652Z,74.76
2023-05-17T06:47:45.058Z,74.76
2023-05-17T06:50:18.678Z,74.64
2023-05-17T06:52:52.313Z,74.67
2023-05-17T06:55:26.310Z,74.96
2023-05-17T06:58:00.610Z,75.00
2023-05-17T07:00:34.635Z,74.76
2023-05-17T07:03:08.925Z,74.84
2023-05-17T07:05:43.989Z,74.83
2023-05-17T07:08:17.887Z,74.85
2023-05-17T07:10:52.550Z,74.89
2023-05-17T07:13:26.252Z,74.90
2023-05-17T07:16:01.046Z,74.84
2023-05-17T07:18:35.112Z,74.58
2023-05-17T07:21:09.771Z,74.59
2023-05-17T07:23:43.691Z,74.58
2023-05-17T07:26:18.340Z,74.68
2023-05-17T07:28:52.628Z,74.67
2023-05-17T07:31:26.676Z,74.76
2023-05-17T07:34:00.402Z,74.79
2023-05-17T07:36:34.718Z,74.72
2023-05-17T07:39:09.169Z,74.39
2023-05-17T07:41:42.788Z,74.37
2023-05-17T07:44:16.433Z,74.44
2023-05-17T07:46:50.310Z,74.41
2023-05-17T07:49:24.963Z,74.68
2023-05-17T07:51:58.682Z,74.68
2023-05-17T07:54:32.645Z,74.67
2023-05-17T07:57:07.099Z,74.63
2023-05-17T07:59:40.629Z,74.44
2023-05-17T08:02:14.291Z,74.46
2023-05-17T08:04:48.385Z,74.57
2023-05-17T08:07:22.085Z,74.79
2023-05-17T08:09:55.987Z,74.73
2023-05-17T08:12:29.991Z,74.88
2023-05-17T08:15:03.986Z,74.94
2023-05-17T08:17:37.964Z,74.43
2023-05-17T08:20:14.206Z,74.46
2023-05-17T08:22:48.236Z,74.31
2023-05-17T08:25:23.284Z,74.27
2023-05-17T08:27:58.191Z,74.03
2023-05-17T08:30:33.091Z,73.79
2023-05-17T08:33:07.425Z,73.62
2023-05-17T08:35:41.235Z,73.74
2023-05-17T08:38:14.835Z,73.93
2023-05-17T08:40:55.080Z,74.02
2023-05-17T08:43:29.939Z,74.05
2023-05-17T08:46:04.559Z,73.87
2023-05-17T08:48:42.799Z,74.05
2023-05-17T08:51:18.974Z,73.66
2023-05-17T08:53:53.004Z,73.49
2023-05-17T08:56:28.651Z,73.38
2023-05-17T08:59:02.783Z,73.29
2023-05-17T09:01:37.145Z,73.14
2023-05-17T09:04:12.825Z,73.05
2023-05-17T09:06:46.740Z,73.15
2023-05-17T09:09:21.301Z,73.35
2023-05-17T09:11:55.478Z,73.38
2023-05-17T09:14:37.076Z,73.29
2023-05-17T09:17:10.741Z,72.91
2023-05-17T09:19:49.366Z,72.85
2023-05-17T09:22:23.317Z,73.04
2023-05-17T09:25:00.624Z,73.42
2023-05-17T09:27:34.904Z,73.45
2023-05-17T09:30:15.615Z,73.26
2023-05-17T09:32:51.213Z,72.51
2023-05-17T09:35:31.976Z,72.12
2023-05-17T09:38:10.371Z,72.09
2023-05-17T09:40:45.481Z,71.88
2023-05-17T09:43:25.887Z,72.03
2023-05-17T09:46:02.403Z,72.29
2023-05-17T09:48:40.143Z,72.17
2023-05-17T09:51:14.692Z,72.44
2023-05-17T09:53:49.016Z,72.60
2023-05-17T09:56:24.983Z,72.54
2023-05-17T09:58:59.391Z,72.62
2023-05-17T10:01:34.107Z,72.53
2023-05-17T10:04:10.874Z,72.50
2023-05-17T10:06:51.398Z,72.37
2023-05-17T10:09:35.185Z,72.34
2023-05-17T10:12:15.074Z,72.50
2023-05-17T10:14:49.505Z,72.49
2023-05-17T10:17:24.218Z,72.48
2023-05-17T10:19:58.326Z,72.49
2023-05-17T10:22:33.033Z,72.55
2023-05-17T10:25:07.358Z,72.10
2023-05-17T10:27:42.223Z,72.19
2023-05-17T10:30:19.906Z,72.08
2023-05-17T10:32:54.677Z,71.94
2023-05-17T10:35:30.070Z,71.74
2023-05-17T10:38:04.328Z,71.87
2023-05-17T10:40:39.268Z,72.04
2023-05-17T10:43:14.347Z,72.24
2023-05-17T10:45:49.452Z,72.27
2023-05-17T10:48:23.176Z,72.38
2023-05-17T10:51:01.925Z,72.48
2023-05-17T10:53:36.817Z,72.33
2023-05-17T10:56:11.395Z,72.30
2023-05-17T10:58:48.040Z,72.00
2023-05-17T11:01:53.853Z,72.05
2023-05-17T11:04:29.768Z,72.08
2023-05-17T11:07:27.625Z,71.98
2023-05-17T11:10:12.555Z,72.02
2023-05-17T11:12:49.906Z,72.15
2023-05-17T11:15:27.161Z,71.95
2023-05-17T11:18:02.482Z,71.79
2023-05-17T11:20:37.705Z,71.83
2023-05-17T11:23:20.185Z,71.63
2023-05-17T11:25:55.171Z,71.43
2023-05-17T11:28:30.297Z,71.20
2023-05-17T11:31:05.905Z,71.21
2023-05-17T11:33:47.184Z,71.30
2023-05-17T11:36:23.145Z,71.17
2023-05-17T11:39:13.288Z,71.01
2023-05-17T11:41:54.206Z,71.09
2023-05-17T11:44:30.742Z,71.17
2023-05-17T11:47:10.011Z,70.98
2023-05-17T11:49:44.088Z,71.04
2023-05-17T11:52:20.397Z,71.24
2023-05-17T11:54:55.891Z,71.26
2023-05-17T11:57:34.568Z,71.41
2023-05-17T12:00:10.401Z,71.57
2023-05-17T12:02:47.760Z,71.40
2023-05-17T12:05:25.691Z,71.38
2023-05-17T12:07:59.766Z,71.30
2023-05-17T12:10:34.956Z,71.46
2023-05-17T12:13:11.291Z,71.31
2023-05-17T12:15:55.476Z,71.44
2023-05-17T12:18:38.936Z,71.56
2023-05-17T12:21:15.764Z,71.38
2023-05-17T12:23:53.720Z,71.45
2023-05-17T12:26:27.975Z,71.57
2023-05-17T12:29:03.099Z,71.78
2023-05-17T12:31:40.156Z,71.76
2023-05-17T12:34:15.718Z,71.79
2023-05-17T12:36:49.989Z,71.83
2023-05-17T12:39:25.428Z,71.97
2023-05-17T12:41:59.620Z,71.58
2023-05-17T12:44:34.263Z,71.68
2023-05-17T12:47:09.115Z,71.95
2023-05-17T12:49:53.901Z,71.79
2023-05-17T12:52:28.155Z,71.83
2023-05-17T12:55:07.404Z,72.10
2023-05-17T12:57:41.412Z,72.20
2023-05-17T13:00:17.927Z,72.22
2023-05-17T13:02:52.369Z,72.05
2023-05-17T13:05:26.916Z,72.00
2023-05-17T13:08:20.542Z,72.10
2023-05-17T13:10:54.611Z,72.06
2023-05-17T13:13:28.110Z,71.96
2023-05-17T13:16:02.256Z,72.02
2023-05-17T13:18:50.732Z,71.93
2023-05-17T13:21:25.337Z,72.17
2023-05-17T13:23:59.193Z,72.14
2023-05-17T13:26:32.751Z,72.14
2023-05-17T13:29:06.748Z,72.34
2023-05-17T13:31:42.084Z,72.29
2023-05-17T13:34:15.921Z,72.27
2023-05-17T13:36:49.881Z,72.49
2023-05-17T13:39:23.718Z,72.35
2023-05-17T13:41:57.419Z,72.15
2023-05-17T13:44:31.289Z,72.13
2023-05-17T13:47:05.464Z,72.01
2023-05-17T13:49:39.502Z,72.12
2023-05-17T13:52:13.843Z,72.20
2023-05-17T13:54:47.521Z,72.43
2023-05-17T13:57:21.794Z,72.35
2023-05-17T13:59:55.791Z,72.41
2023-05-17T14:02:29.518Z,72.44
2023-05-17T14:05:03.927Z,72.78
2023-05-17T14:07:42.001Z,72.84
2023-05-17T14:10:16.237Z,72.71
2023-05-17T14:12:50.004Z,72.49
2023-05-17T14:15:23.699Z,72.40
2023-05-17T14:17:57.518Z,72.34
2023-05-17T14:20:31.518Z,71.88
2023-05-17T14:23:05.540Z,71.40
2023-05-17T14:25:40.452Z,71.35
2023-05-17T14:28:14.050Z,71.43
2023-05-17T14:30:48.544Z,71.20
2023-05-17T14:33:22.298Z,71.13
2023-05-17T14:35:56.353Z,70.96
2023-05-17T14:38:30.556Z,70.75
2023-05-17T14:41:14.098Z,70.51
2023-05-17T14:43:48.206Z,70.05
2023-05-17T14:46:22.212Z,70.05
2023-05-17T14:48:56.856Z,70.10
2023-05-17T14:51:30.846Z,69.89
2023-05-17T14:54:06.236Z,69.78
2023-05-17T14:56:40.179Z,69.84
2023-05-17T14:59:14.334Z,69.56
2023-05-17T15:01:48.206Z,69.54
2023-05-17T15:04:22.209Z,69.71
2023-05-17T15:06:56.420Z,69.76
2023-05-17T15:09:31.294Z,69.94
2023-05-17T15:12:05.164Z,69.95
2023-05-17T15:14:39.155Z,70.04
2023-05-17T15:17:12.832Z,69.99
2023-05-17T15:19:46.859Z,69.91
2023-05-17T15:22:20.900Z,69.89
2023-05-17T15:24:54.665Z,70.10
2023-05-17T15:27:31.409Z,70.18
2023-05-17T15:30:16.953Z,69.81
2023-05-17T15:32:51.299Z,70.00
2023-05-17T15:35:25.197Z,70.12
2023-05-17T15:38:06.034Z,70.24
2023-05-17T15:40:39.840Z,70.45
2023-05-17T15:43:13.775Z,70.52
2023-05-17T15:45:47.946Z,70.69
2023-05-17T15:48:23.944Z,70.70
2023-05-17T15:50:57.829Z,70.95
2023-05-17T15:53:32.875Z,70.97
2023-05-17T15:56:08.157Z,70.78
2023-05-17T15:58:41.887Z,71.15
2023-05-17T16:01:16.095Z,71.35
2023-05-17T16:03:50.201Z,71.48
2023-05-17T16:06:23.648Z,71.22
2023-05-17T16:08:57.766Z,71.30
2023-05-17T16:11:32.633Z,71.38
2023-05-17T16:14:06.610Z,71.32
2023-05-17T16:16:40.429Z,71.22
2023-05-17T16:19:14.560Z,71.43
2023-05-17T16:21:50.890Z,71.41
2023-05-17T16:24:25.020Z,71.21
2023-05-17T16:26:59.508Z,71.34
2023-05-17T16:29:38.209Z,71.26
2023-05-17T16:32:12.135Z,71.12
2023-05-17T16:34:45.913Z,71.14
2023-05-17T16:37:19.569Z,71.24
2023-05-17T16:39:53.256Z,71.15
2023-05-17T16:42:27.189Z,70.83
2023-05-17T16:45:00.704Z,70.76
2023-05-17T16:47:34.886Z,70.58
2023-05-17T16:50:11.098Z,70.79
2023-05-17T16:52:45.716Z,70.89
2023-05-17T16:55:19.392Z,70.91
2023-05-17T16:57:53.274Z,70.97
2023-05-17T17:00:27.410Z,71.03
2023-05-17T17:03:02.154Z,70.91
2023-05-17T17:05:36.131Z,70.72
2023-05-17T17:08:10.184Z,70.63
2023-05-17T17:10:44.132Z,70.78
2023-05-17T17:13:18.018Z,70.90
2023-05-17T17:15:52.911Z,70.99
2023-05-17T17:18:26.716Z,71.14
2023-05-17T17:21:00.410Z,71.15
2023-05-17T17:23:34.241Z,71.12
2023-05-17T17:26:08.953Z,70.98
2023-05-17T17:28:42.952Z,70.88
2023-05-17T17:31:16.794Z,70.86
2023-05-17T17:33:50.961Z,70.84
2023-05-17T17:36:24.741Z,70.75
2023-05-17T17:38:58.609Z,70.62
2023-05-17T17:41:33.511Z,70.69
2023-05-17T17:44:08.391Z,70.62
2023-05-17T17:46:42.166Z,70.76
2023-05-17T17:49:16.116Z,70.74
2023-05-17T17:51:49.717Z,70.60
2023-05-17T17:54:23.903Z,70.66
2023-05-17T17:56:58.012Z,70.67
2023-05-17T17:59:31.806Z,70.72
2023-05-17T18:02:05.951Z,70.55
2023-05-17T18:04:42.246Z,70.56
2023-05-17T18:07:17.398Z,70.74
2023-05-17T18:09:51.426Z,70.70
2023-05-17T18:12:27.516Z,70.73
2023-05-17T18:15:02.420Z,70.72
2023-05-17T18:17:37.757Z,70.66
2023-05-17T18:20:12.838Z,70.74
2023-05-17T18:22:47.719Z,70.89
2023-05-17T18:25:21.981Z,70.61
2023-05-17T18:27:56.077Z,70.61
2023-05-17T18:30:30.293Z,70.78
2023-05-17T18:33:05.002Z,70.94
2023-05-17T18:35:40.690Z,71.14
2023-05-17T18:38:14.838Z,71.10
2023-05-17T18:40:48.527Z,71.08
2023-05-17T18:43:22.653Z,71.25
2023-05-17T18:46:00.441Z,71.20
2023-05-17T18:48:38.064Z,71.28
2023-05-17T18:51:13.290Z,71.25
2023-05-17T18:53:48.724Z,71.20
2023-05-17T18:56:24.348Z,71.11
2023-05-17T18:58:59.175Z,71.03
2023-05-17T19:01:36.483Z,71.10
2023-05-17T19:04:12.077Z,71.08
2023-05-17T19:06:48.887Z,71.00
2023-05-17T19:09:26.174Z,71.12
2023-05-17T19:12:00.871Z,71.15
2023-05-17T19:14:35.497Z,71.29
2023-05-17T19:17:10.629Z,71.17
2023-05-17T19:19:45.779Z,71.17
2023-05-17T19:22:21.951Z,70.98
2023-05-17T19:24:57.381Z,70.83
2023-05-17T19:27:32.211Z,70.92
2023-05-17T19:30:08.097Z,71.13
2023-05-17T19:32:45.226Z,70.93
2023-05-17T19:35:22.110Z,70.78
2023-05-17T19:37:57.729Z,70.88
2023-05-17T19:40:32.436Z,70.73
2023-05-17T19:43:08.676Z,70.76
2023-05-17T19:45:46.799Z,70.62
2023-05-17T19:48:27.315Z,70.41
2023-05-17T19:51:01.903Z,70.22
2023-05-17T19:53:50.784Z,69.93
2023-05-17T19:56:28.056Z,69.60
2023-05-17T19:59:04.185Z,69.43
2023-05-17T20:01:38.391Z,69.52
2023-05-17T20:04:13.793Z,69.34
2023-05-17T20:06:48.827Z,69.06
2023-05-17T20:09:26.890Z,68.94
2023-05-17T20:12:03.896Z,68.79
2023-05-17T20:14:39.960Z,68.87
2023-05-17T20:17:15.074Z,68.83
2023-05-17T20:19:52.129Z,68.72
2023-05-17T20:22:27.118Z,68.68
2023-05-17T20:25:02.198Z,68.64
2023-05-17T20:27:38.477Z,68.53
2023-05-17T20:30:14.363Z,68.42
2023-05-17T20:32:49.950Z,68.43
2023-05-17T20:35:24.765Z,68.45
2023-05-17T20:37:59.268Z,68.48
2023-05-17T20:40:33.204Z,68.61
2023-05-17T20:43:08.022Z,68.71
2023-05-17T20:45:42.286Z,68.56
2023-05-17T20:48:16.020Z,68.38
2023-05-17T20:50:49.759Z,68.34
2023-05-17T20:53:23.495Z,68.39
2023-05-17T20:55:57.371Z,68.39
2023-05-17T20:58:31.611Z,68.23
2023-05-17T21:01:06.182Z,68.22
2023-05-17T21:03:40.500Z,68.13
2023-05-17T21:06:14.181Z,67.98
2023-05-17T21:08:48.146Z,68.09
2023-05-17T21:11:22.432Z,68.03
2023-05-17T21:13:55.960Z,68.07
2023-05-17T21:16:29.568Z,67.99
2023-05-17T21:19:03.438Z,67.96
2023-05-17T21:21:37.971Z,67.95
2023-05-17T21:24:12.934Z,68.21
2023-05-17T21:26:46.434Z,68.25
2023-05-17T21:29:20.599Z,68.31
2023-05-17T21:31:54.588Z,68.31
2023-05-17T21:34:28.276Z,68.53
2023-05-17T21:37:01.970Z,68.42
2023-05-17T21:39:36.065Z,68.29
2023-05-17T21:42:09.972Z,68.48
2023-05-17T21:44:43.746Z,68.53
2023-05-17T21:47:17.456Z,68.88
2023-05-17T21:49:51.910Z,69.01
2023-05-17T21:52:25.569Z,68.97
2023-05-17T21:54:59.411Z,68.68
2023-05-17T21:57:36.835Z,68.47
2023-05-17T22:00:15.744Z,68.12
2023-05-17T22:02:50.782Z,67.75
2023-05-17T22:05:24.592Z,67.74
2023-05-17T22:07:59.910Z,67.76
2023-05-17T22:10:34.119Z,67.61
2023-05-17T22:13:08.441Z,67.30
2023-05-17T22:15:43.190Z,67.02
2023-05-17T22:18:17.019Z,66.68
2023-05-17T22:20:53.726Z,66.30
2023-05-17T22:23:28.113Z,65.63
2023-05-17T22:26:01.849Z,65.11
2023-05-17T22:28:35.514Z,65.17
2023-05-17T22:31:10.070Z,64.96
2023-05-17T22:33:44.078Z,64.70
2023-05-17T22:36:19.415Z,64.41
2023-05-17T22:38:53.126Z,64.63
2023-05-17T22:41:27.856Z,64.34
2023-05-17T22:44:01.788Z,64.25
2023-05-17T22:46:35.792Z,64.40
2023-05-17T22:49:09.659Z,64.46
2023-05-17T22:51:43.660Z,64.29
2023-05-17T22:54:17.810Z,64.00
2023-05-17T22:56:51.500Z,63.93
2023-05-17T22:59:25.406Z,63.70
2023-05-17T23:01:59.838Z,63.65
2023-05-17T23:04:34.392Z,63.47
2023-05-17T23:07:10.285Z,63.67
2023-05-17T23:09:44.525Z,63.65
2023-05-17T23:12:18.989Z,63.32
2023-05-17T23:14:52.479Z,63.15
2023-05-17T23:17:27.009Z,62.20
2023-05-17T23:20:02.361Z,62.09
2023-05-17T23:22:36.389Z,62.16
2023-05-17T23:25:11.635Z,62.18
2023-05-17T23:27:45.953Z,62.05
2023-05-17T23:30:20.644Z,62.01
2023-05-17T23:32:55.586Z,62.08
2023-05-17T23:35:30.053Z,62.03
2023-05-17T23:38:04.603Z,61.78
2023-05-17T23:40:38.687Z,61.80
2023-05-17T23:43:12.581Z,61.71
2023-05-17T23:45:46.851Z,61.93
2023-05-17T23:48:26.197Z,61.71
2023-05-17T23:51:00.083Z,61.52
2023-05-17T23:53:34.490Z,61.38
2023-05-17T23:56:08.910Z,61.42
2023-05-17T23:58:43.055Z,61.48
